sensor_id;sensor_type;location;lat;lon;timestamp;temperature;humidity
5492;DHT22;2768;53.540;10.224;2023-05-25T00:03:59;11.90;99.90
5492;DHT22;2768;53.540;10.224;2023-05-25T00:09:53;11.90;99.90
5492;DHT22;2768;53.540;10.224;2023-05-25T00:15:48;11.90;99.90
5492;DHT22;2768;53.540;10.224;2023-05-25T00:21:41;11.80;99.90
5492;DHT22;2768;53.540;10.224;2023-05-25T00:27:35;11.80;99.90
5492;DHT22;2768;53.540;10.224;2023-05-25T00:33:30;11.90;99.90
5492;DHT22;2768;53.540;10.224;2023-05-25T00:39:24;11.70;99.90
5492;DHT22;2768;53.540;10.224;2023-05-25T00:45:17;11.60;99.90
5492;DHT22;2768;53.540;10.224;2023-05-25T00:51:13;11.70;99.90
5492;DHT22;2768;53.540;10.224;2023-05-25T00:57:07;11.60;99.90
5492;DHT22;2768;53.540;10.224;2023-05-25T01:03:05;11.60;99.90
5492;DHT22;2768;53.540;10.224;2023-05-25T01:09:07;11.70;99.90
5492;DHT22;2768;53.540;10.224;2023-05-25T01:15:05;11.60;99.90
5492;DHT22;2768;53.540;10.224;2023-05-25T01:21:14;11.50;99.90
5492;DHT22;2768;53.540;10.224;2023-05-25T01:27:15;11.60;99.90
5492;DHT22;2768;53.540;10.224;2023-05-25T01:33:10;11.60;99.90
5492;DHT22;2768;53.540;10.224;2023-05-25T01:39:06;11.40;99.90
5492;DHT22;2768;53.540;10.224;2023-05-25T01:45:02;11.50;99.90
5492;DHT22;2768;53.540;10.224;2023-05-25T01:50:59;11.50;99.90
5492;DHT22;2768;53.540;10.224;2023-05-25T01:56:58;11.40;99.90
5492;DHT22;2768;53.540;10.224;2023-05-25T02:02:53;11.40;99.90
5492;DHT22;2768;53.540;10.224;2023-05-25T02:08:47;11.30;99.90
5492;DHT22;2768;53.540;10.224;2023-05-25T02:14:42;11.40;99.90
5492;DHT22;2768;53.540;10.224;2023-05-25T02:20:37;11.40;99.90
5492;DHT22;2768;53.540;10.224;2023-05-25T02:26:31;11.30;99.90
5492;DHT22;2768;53.540;10.224;2023-05-25T02:32:26;11.40;99.90
5492;DHT22;2768;53.540;10.224;2023-05-25T02:38:20;11.10;99.90
5492;DHT22;2768;53.540;10.224;2023-05-25T02:44:14;11.20;99.90
5492;DHT22;2768;53.540;10.224;2023-05-25T02:50:10;11.20;99.90
5492;DHT22;2768;53.540;10.224;2023-05-25T02:56:08;11.20;99.90
5492;DHT22;2768;53.540;10.224;2023-05-25T03:02:02;11.20;99.90
5492;DHT22;2768;53.540;10.224;2023-05-25T03:07:58;11.30;99.90
5492;DHT22;2768;53.540;10.224;2023-05-25T03:13:51;11.20;99.90
5492;DHT22;2768;53.540;10.224;2023-05-25T03:19:46;11.10;99.90
5492;DHT22;2768;53.540;10.224;2023-05-25T03:25:41;11.00;99.90
5492;DHT22;2768;53.540;10.224;2023-05-25T03:31:35;11.00;99.90
5492;DHT22;2768;53.540;10.224;2023-05-25T03:37:28;11.10;99.90
5492;DHT22;2768;53.540;10.224;2023-05-25T03:43:24;11.10;99.90
5492;DHT22;2768;53.540;10.224;2023-05-25T03:49:18;10.90;99.90
5492;DHT22;2768;53.540;10.224;2023-05-25T03:55:11;11.00;99.90
5492;DHT22;2768;53.540;10.224;2023-05-25T04:01:07;10.90;99.90
5492;DHT22;2768;53.540;10.224;2023-05-25T04:07:01;10.90;1.00
5492;DHT22;2768;53.540;10.224;2023-05-25T04:12:54;10.90;1.00
5492;DHT22;2768;53.540;10.224;2023-05-25T04:18:50;11.00;1.00
5492;DHT22;2768;53.540;10.224;2023-05-25T04:24:44;11.00;1.00
5492;DHT22;2768;53.540;10.224;2023-05-25T04:30:37;10.80;1.00
5492;DHT22;2768;53.540;10.224;2023-05-25T04:36:51;10.90;1.00
5492;DHT22;2768;53.540;10.224;2023-05-25T04:42:45;10.80;1.00
5492;DHT22;2768;53.540;10.224;2023-05-25T04:48:39;10.80;1.00
5492;DHT22;2768;53.540;10.224;2023-05-25T04:54:35;10.90;1.00
5492;DHT22;2768;53.540;10.224;2023-05-25T05:00:28;10.90;1.00
5492;DHT22;2768;53.540;10.224;2023-05-25T05:06:22;11.00;1.00
5492;DHT22;2768;53.540;10.224;2023-05-25T05:12:20;11.10;1.00
5492;DHT22;2768;53.540;10.224;2023-05-25T05:18:16;11.30;1.00
5492;DHT22;2768;53.540;10.224;2023-05-25T05:24:10;11.40;1.00
5492;DHT22;2768;53.540;10.224;2023-05-25T05:30:08;11.40;1.00
5492;DHT22;2768;53.540;10.224;2023-05-25T05:36:02;11.40;99.90
5492;DHT22;2768;53.540;10.224;2023-05-25T05:41:56;11.40;99.90
5492;DHT22;2768;53.540;10.224;2023-05-25T05:47:52;11.40;99.90
5492;DHT22;2768;53.540;10.224;2023-05-25T05:53:45;11.50;99.90
5492;DHT22;2768;53.540;10.224;2023-05-25T05:59:39;11.50;99.90
5492;DHT22;2768;53.540;10.224;2023-05-25T06:05:34;11.50;99.90
5492;DHT22;2768;53.540;10.224;2023-05-25T06:11:28;11.70;99.90
5492;DHT22;2768;53.540;10.224;2023-05-25T06:17:22;11.80;99.90
5492;DHT22;2768;53.540;10.224;2023-05-25T06:23:19;12.10;99.90
5492;DHT22;2768;53.540;10.224;2023-05-25T06:29:13;12.40;99.90
5492;DHT22;2768;53.540;10.224;2023-05-25T06:35:08;12.40;99.90
5492;DHT22;2768;53.540;10.224;2023-05-25T06:41:09;12.40;99.90
5492;DHT22;2768;53.540;10.224;2023-05-25T06:47:06;12.50;99.90
5492;DHT22;2768;53.540;10.224;2023-05-25T06:53:00;12.60;99.90
5492;DHT22;2768;53.540;10.224;2023-05-25T06:58:54;12.90;99.90
5492;DHT22;2768;53.540;10.224;2023-05-25T07:04:48;12.90;99.90
5492;DHT22;2768;53.540;10.224;2023-05-25T07:10:42;13.00;99.90
5492;DHT22;2768;53.540;10.224;2023-05-25T07:16:36;13.20;99.90
5492;DHT22;2768;53.540;10.224;2023-05-25T07:22:30;13.20;99.90
5492;DHT22;2768;53.540;10.224;2023-05-25T07:28:23;13.40;99.90
5492;DHT22;2768;53.540;10.224;2023-05-25T07:34:18;13.60;99.90
5492;DHT22;2768;53.540;10.224;2023-05-25T07:40:12;13.40;99.90
5492;DHT22;2768;53.540;10.224;2023-05-25T07:46:05;13.40;99.90
5492;DHT22;2768;53.540;10.224;2023-05-25T07:52:00;13.40;99.90
5492;DHT22;2768;53.540;10.224;2023-05-25T07:57:54;13.50;99.90
5492;DHT22;2768;53.540;10.224;2023-05-25T08:03:47;13.60;99.90
5492;DHT22;2768;53.540;10.224;2023-05-25T08:09:42;13.60;99.90
5492;DHT22;2768;53.540;10.224;2023-05-25T08:15:36;13.70;99.90
5492;DHT22;2768;53.540;10.224;2023-05-25T08:21:29;14.00;99.90
5492;DHT22;2768;53.540;10.224;2023-05-25T08:27:27;14.10;99.90
5492;DHT22;2768;53.540;10.224;2023-05-25T08:33:20;14.00;99.90
5492;DHT22;2768;53.540;10.224;2023-05-25T08:39:17;13.90;99.90
5492;DHT22;2768;53.540;10.224;2023-05-25T08:45:11;14.20;99.90
5492;DHT22;2768;53.540;10.224;2023-05-25T08:51:24;14.30;99.90
5492;DHT22;2768;53.540;10.224;2023-05-25T08:57:22;14.50;99.90
5492;DHT22;2768;53.540;10.224;2023-05-25T09:03:17;14.50;99.90
5492;DHT22;2768;53.540;10.224;2023-05-25T09:09:12;14.50;99.90
5492;DHT22;2768;53.540;10.224;2023-05-25T09:15:10;14.70;99.90
5492;DHT22;2768;53.540;10.224;2023-05-25T09:21:05;14.90;97.00
5492;DHT22;2768;53.540;10.224;2023-05-25T09:26:59;15.00;84.80
5492;DHT22;2768;53.540;10.224;2023-05-25T09:32:53;15.00;63.10
5492;DHT22;2768;53.540;10.224;2023-05-25T09:38:48;15.30;82.20
5492;DHT22;2768;53.540;10.224;2023-05-25T09:44:42;15.50;63.60
5492;DHT22;2768;53.540;10.224;2023-05-25T09:50:36;15.60;63.80
5492;DHT22;2768;53.540;10.224;2023-05-25T09:56:31;15.70;45.30
5492;DHT22;2768;53.540;10.224;2023-05-25T10:02:25;15.80;46.60
5492;DHT22;2768;53.540;10.224;2023-05-25T10:08:19;15.90;35.90
5492;DHT22;2768;53.540;10.224;2023-05-25T10:14:21;15.80;24.20
5492;DHT22;2768;53.540;10.224;2023-05-25T10:20:20;16.00;33.50
5492;DHT22;2768;53.540;10.224;2023-05-25T10:26:23;15.90;11.00
5492;DHT22;2768;53.540;10.224;2023-05-25T10:32:19;16.10;11.10
5492;DHT22;2768;53.540;10.224;2023-05-25T10:38:12;16.20;9.40
5492;DHT22;2768;53.540;10.224;2023-05-25T10:44:06;16.30;7.30
5492;DHT22;2768;53.540;10.224;2023-05-25T10:50:01;16.90;6.80
5492;DHT22;2768;53.540;10.224;2023-05-25T10:56:00;17.10;9.10
5492;DHT22;2768;53.540;10.224;2023-05-25T11:01:55;17.30;5.90
5492;DHT22;2768;53.540;10.224;2023-05-25T11:07:53;17.50;8.80
5492;DHT22;2768;53.540;10.224;2023-05-25T11:13:47;17.30;1.00
5492;DHT22;2768;53.540;10.224;2023-05-25T11:19:43;17.50;1.00
5492;DHT22;2768;53.540;10.224;2023-05-25T11:25:42;17.50;1.00
5492;DHT22;2768;53.540;10.224;2023-05-25T11:31:36;17.60;1.00
5492;DHT22;2768;53.540;10.224;2023-05-25T11:37:34;17.60;1.00
5492;DHT22;2768;53.540;10.224;2023-05-25T11:43:30;17.40;1.00
5492;DHT22;2768;53.540;10.224;2023-05-25T11:49:25;17.80;1.00
5492;DHT22;2768;53.540;10.224;2023-05-25T11:55:19;18.20;1.00
5492;DHT22;2768;53.540;10.224;2023-05-25T12:01:15;18.30;1.00
5492;DHT22;2768;53.540;10.224;2023-05-25T12:07:09;18.20;1.00
5492;DHT22;2768;53.540;10.224;2023-05-25T12:13:03;18.50;1.00
5492;DHT22;2768;53.540;10.224;2023-05-25T12:19:02;18.60;1.00
5492;DHT22;2768;53.540;10.224;2023-05-25T12:24:56;18.80;1.00
5492;DHT22;2768;53.540;10.224;2023-05-25T12:30:49;19.00;1.00
5492;DHT22;2768;53.540;10.224;2023-05-25T12:36:46;19.00;1.00
5492;DHT22;2768;53.540;10.224;2023-05-25T12:42:40;19.20;1.00
5492;DHT22;2768;53.540;10.224;2023-05-25T12:48:33;19.70;1.00
5492;DHT22;2768;53.540;10.224;2023-05-25T12:54:36;19.30;1.00
5492;DHT22;2768;53.540;10.224;2023-05-25T13:00:33;19.00;1.00
5492;DHT22;2768;53.540;10.224;2023-05-25T13:06:26;19.40;1.00
5492;DHT22;2768;53.540;10.224;2023-05-25T13:12:21;19.70;1.00
5492;DHT22;2768;53.540;10.224;2023-05-25T13:18:15;19.70;1.00
5492;DHT22;2768;53.540;10.224;2023-05-25T13:24:08;19.90;1.00
5492;DHT22;2768;53.540;10.224;2023-05-25T13:30:08;20.00;1.00
5492;DHT22;2768;53.540;10.224;2023-05-25T13:36:02;20.40;1.00
5492;DHT22;2768;53.540;10.224;2023-05-25T13:42:00;20.20;1.00
5492;DHT22;2768;53.540;10.224;2023-05-25T13:47:54;20.00;1.00
5492;DHT22;2768;53.540;10.224;2023-05-25T13:53:48;20.50;1.00
5492;DHT22;2768;53.540;10.224;2023-05-25T13:59:41;20.70;1.00
5492;DHT22;2768;53.540;10.224;2023-05-25T14:05:36;20.80;1.00
5492;DHT22;2768;53.540;10.224;2023-05-25T14:11:30;20.70;1.00
5492;DHT22;2768;53.540;10.224;2023-05-25T14:17:23;20.60;1.00
5492;DHT22;2768;53.540;10.224;2023-05-25T14:23:18;20.80;1.00
5492;DHT22;2768;53.540;10.224;2023-05-25T14:29:12;21.20;1.00
5492;DHT22;2768;53.540;10.224;2023-05-25T14:35:07;20.80;1.00
5492;DHT22;2768;53.540;10.224;2023-05-25T14:41:02;20.50;1.00
5492;DHT22;2768;53.540;10.224;2023-05-25T14:46:56;20.20;1.00
5492;DHT22;2768;53.540;10.224;2023-05-25T14:52:49;20.50;1.00
5492;DHT22;2768;53.540;10.224;2023-05-25T14:58:44;20.60;1.00
5492;DHT22;2768;53.540;10.224;2023-05-25T15:04:38;20.50;1.00
5492;DHT22;2768;53.540;10.224;2023-05-25T15:10:31;20.40;1.00
5492;DHT22;2768;53.540;10.224;2023-05-25T15:16:26;20.40;1.00
5492;DHT22;2768;53.540;10.224;2023-05-25T15:22:19;20.30;1.00
5492;DHT22;2768;53.540;10.224;2023-05-25T15:28:13;20.30;1.00
5492;DHT22;2768;53.540;10.224;2023-05-25T15:34:07;20.20;1.00
5492;DHT22;2768;53.540;10.224;2023-05-25T15:40:01;20.20;1.00
5492;DHT22;2768;53.540;10.224;2023-05-25T15:45:56;20.30;1.00
5492;DHT22;2768;53.540;10.224;2023-05-25T15:51:51;20.30;1.00
5492;DHT22;2768;53.540;10.224;2023-05-25T15:57:45;20.30;1.00
5492;DHT22;2768;53.540;10.224;2023-05-25T16:03:38;20.20;1.00
5492;DHT22;2768;53.540;10.224;2023-05-25T16:09:35;20.10;1.00
5492;DHT22;2768;53.540;10.224;2023-05-25T16:15:28;20.00;1.00
5492;DHT22;2768;53.540;10.224;2023-05-25T16:21:23;19.90;1.00
5492;DHT22;2768;53.540;10.224;2023-05-25T16:27:18;19.70;1.00
5492;DHT22;2768;53.540;10.224;2023-05-25T16:33:11;19.40;1.00
5492;DHT22;2768;53.540;10.224;2023-05-25T16:39:05;19.40;1.00
5492;DHT22;2768;53.540;10.224;2023-05-25T16:45:00;19.30;1.00
5492;DHT22;2768;53.540;10.224;2023-05-25T16:50:53;19.20;1.00
5492;DHT22;2768;53.540;10.224;2023-05-25T16:56:47;19.00;1.00
5492;DHT22;2768;53.540;10.224;2023-05-25T17:02:42;19.00;1.00
5492;DHT22;2768;53.540;10.224;2023-05-25T17:08:35;18.80;1.00
5492;DHT22;2768;53.540;10.224;2023-05-25T17:14:28;18.70;1.00
5492;DHT22;2768;53.540;10.224;2023-05-25T17:20:23;18.60;2.00
5492;DHT22;2768;53.540;10.224;2023-05-25T17:26:16;18.40;1.90
5492;DHT22;2768;53.540;10.224;2023-05-25T17:32:09;18.40;7.40
5492;DHT22;2768;53.540;10.224;2023-05-25T17:38:04;18.20;12.60
5492;DHT22;2768;53.540;10.224;2023-05-25T17:43:58;18.20;14.10
5492;DHT22;2768;53.540;10.224;2023-05-25T17:49:51;18.20;18.60
5492;DHT22;2768;53.540;10.224;2023-05-25T17:55:46;18.20;23.80
5492;DHT22;2768;53.540;10.224;2023-05-25T18:01:40;17.90;25.90
5492;DHT22;2768;53.540;10.224;2023-05-25T18:07:33;17.90;29.50
5492;DHT22;2768;53.540;10.224;2023-05-25T18:13:28;17.80;31.80
5492;DHT22;2768;53.540;10.224;2023-05-25T18:19:21;17.70;37.50
5492;DHT22;2768;53.540;10.224;2023-05-25T18:25:15;17.60;37.90
5492;DHT22;2768;53.540;10.224;2023-05-25T18:31:09;17.60;39.00
5492;DHT22;2768;53.540;10.224;2023-05-25T18:37:03;17.50;45.20
5492;DHT22;2768;53.540;10.224;2023-05-25T18:42:56;17.50;47.50
5492;DHT22;2768;53.540;10.224;2023-05-25T18:48:51;17.40;52.10
5492;DHT22;2768;53.540;10.224;2023-05-25T18:54:45;17.40;56.10
5492;DHT22;2768;53.540;10.224;2023-05-25T19:00:39;17.40;65.40
5492;DHT22;2768;53.540;10.224;2023-05-25T19:06:33;17.30;60.90
5492;DHT22;2768;53.540;10.224;2023-05-25T19:12:26;17.30;54.30
5492;DHT22;2768;53.540;10.224;2023-05-25T19:18:20;17.20;54.20
5492;DHT22;2768;53.540;10.224;2023-05-25T19:24:15;17.00;54.50
5492;DHT22;2768;53.540;10.224;2023-05-25T19:30:10;16.90;54.20
5492;DHT22;2768;53.540;10.224;2023-05-25T19:36:03;16.80;58.90
5492;DHT22;2768;53.540;10.224;2023-05-25T19:41:58;16.70;58.80
5492;DHT22;2768;53.540;10.224;2023-05-25T19:47:53;16.50;64.50
5492;DHT22;2768;53.540;10.224;2023-05-25T19:53:46;16.50;64.50
5492;DHT22;2768;53.540;10.224;2023-05-25T19:59:43;16.40;64.50
5492;DHT22;2768;53.540;10.224;2023-05-25T20:05:36;16.30;65.50
5492;DHT22;2768;53.540;10.224;2023-05-25T20:11:30;16.20;64.30
5492;DHT22;2768;53.540;10.224;2023-05-25T20:17:25;16.10;66.50
5492;DHT22;2768;53.540;10.224;2023-05-25T20:23:19;15.90;64.00
5492;DHT22;2768;53.540;10.224;2023-05-25T20:29:12;15.60;77.20
5492;DHT22;2768;53.540;10.224;2023-05-25T20:35:08;15.70;79.20
5492;DHT22;2768;53.540;10.224;2023-05-25T20:41:01;15.60;72.80
5492;DHT22;2768;53.540;10.224;2023-05-25T20:46:55;15.30;68.20
5492;DHT22;2768;53.540;10.224;2023-05-25T20:52:50;14.90;56.70
5492;DHT22;2768;53.540;10.224;2023-05-25T20:58:43;14.70;48.80
5492;DHT22;2768;53.540;10.224;2023-05-25T21:04:37;14.80;43.40
5492;DHT22;2768;53.540;10.224;2023-05-25T21:10:31;14.90;40.90
5492;DHT22;2768;53.540;10.224;2023-05-25T21:16:25;14.80;42.50
5492;DHT22;2768;53.540;10.224;2023-05-25T21:22:19;14.60;45.20
5492;DHT22;2768;53.540;10.224;2023-05-25T21:28:14;14.50;43.10
5492;DHT22;2768;53.540;10.224;2023-05-25T21:34:07;14.50;44.60
5492;DHT22;2768;53.540;10.224;2023-05-25T21:40:04;14.40;43.40
5492;DHT22;2768;53.540;10.224;2023-05-25T21:45:59;14.00;37.70
5492;DHT22;2768;53.540;10.224;2023-05-25T21:51:53;13.90;44.50
5492;DHT22;2768;53.540;10.224;2023-05-25T21:57:46;14.10;46.80
5492;DHT22;2768;53.540;10.224;2023-05-25T22:03:42;13.90;47.70
5492;DHT22;2768;53.540;10.224;2023-05-25T22:09:35;14.00;50.80
5492;DHT22;2768;53.540;10.224;2023-05-25T22:15:29;13.90;51.80
5492;DHT22;2768;53.540;10.224;2023-05-25T22:21:24;13.80;49.90
5492;DHT22;2768;53.540;10.224;2023-05-25T22:27:17;13.70;47.00
5492;DHT22;2768;53.540;10.224;2023-05-25T22:33:11;13.80;47.80
5492;DHT22;2768;53.540;10.224;2023-05-25T22:39:06;13.70;41.20
5492;DHT22;2768;53.540;10.224;2023-05-25T22:44:59;13.60;40.20
5492;DHT22;2768;53.540;10.224;2023-05-25T22:50:53;13.60;38.40
5492;DHT22;2768;53.540;10.224;2023-05-25T22:56:47;13.50;36.40
5492;DHT22;2768;53.540;10.224;2023-05-25T23:02:41;13.40;33.50
5492;DHT22;2768;53.540;10.224;2023-05-25T23:08:35;13.40;32.30
5492;DHT22;2768;53.540;10.224;2023-05-25T23:14:29;13.30;31.10
5492;DHT22;2768;53.540;10.224;2023-05-25T23:20:23;13.30;29.40
5492;DHT22;2768;53.540;10.224;2023-05-25T23:26:17;13.00;31.80
5492;DHT22;2768;53.540;10.224;2023-05-25T23:32:12;13.10;29.80
5492;DHT22;2768;53.540;10.224;2023-05-25T23:38:05;12.90;32.50
5492;DHT22;2768;53.540;10.224;2023-05-25T23:43:59;12.90;29.50
5492;DHT22;2768;53.540;10.224;2023-05-25T23:49:54;12.70;29.30
5492;DHT22;2768;53.540;10.224;2023-05-25T23:55:49;12.60;34.80
